sensor_id;sensor_type;location;lat;lon;timestamp;P1;durP1;ratioP1;P2;durP2;ratioP2
45356;SDS011;31092;51.924;21.448;2023-10-19T00:00:47;19.27;;;9.88;;
45356;SDS011;31092;51.924;21.448;2023-10-19T00:03:15;19.60;;;10.38;;
45356;SDS011;31092;51.924;21.448;2023-10-19T00:05:44;19.92;;;10.80;;
45356;SDS011;31092;51.924;21.448;2023-10-19T00:08:12;20.65;;;9.95;;
45356;SDS011;31092;51.924;21.448;2023-10-19T00:10:38;18.23;;;10.02;;
45356;SDS011;31092;51.924;21.448;2023-10-19T00:13:04;21.17;;;10.05;;
45356;SDS011;31092;51.924;21.448;2023-10-19T00:15:48;25.13;;;11.25;;
45356;SDS011;31092;51.924;21.448;2023-10-19T00:18:19;16.87;;;9.97;;
45356;SDS011;31092;51.924;21.448;2023-10-19T00:20:49;22.30;;;11.32;;
45356;SDS011;31092;51.924;21.448;2023-10-19T00:23:26;30.15;;;13.23;;
45356;SDS011;31092;51.924;21.448;2023-10-19T00:26:00;22.83;;;11.65;;
45356;SDS011;31092;51.924;21.448;2023-10-19T00:28:33;21.40;;;11.15;;
45356;SDS011;31092;51.924;21.448;2023-10-19T00:31:00;18.52;;;9.57;;
45356;SDS011;31092;51.924;21.448;2023-10-19T00:33:32;21.65;;;9.35;;
45356;SDS011;31092;51.924;21.448;2023-10-19T00:36:01;22.60;;;10.07;;
45356;SDS011;31092;51.924;21.448;2023-10-19T00:38:36;18.35;;;10.50;;
45356;SDS011;31092;51.924;21.448;2023-10-19T00:41:05;18.25;;;9.15;;
45356;SDS011;31092;51.924;21.448;2023-10-19T00:43:35;24.65;;;10.70;;
45356;SDS011;31092;51.924;21.448;2023-10-19T00:48:50;16.45;;;8.60;;
45356;SDS011;31092;51.924;21.448;2023-10-19T00:51:23;15.23;;;9.23;;
45356;SDS011;31092;51.924;21.448;2023-10-19T00:53:58;16.08;;;9.52;;
45356;SDS011;31092;51.924;21.448;2023-10-19T00:56:33;16.25;;;9.98;;
45356;SDS011;31092;51.924;21.448;2023-10-19T00:59:00;15.18;;;8.50;;
45356;SDS011;31092;51.924;21.448;2023-10-19T01:01:39;18.00;;;10.40;;
45356;SDS011;31092;51.924;21.448;2023-10-19T01:04:15;23.23;;;10.48;;
45356;SDS011;31092;51.924;21.448;2023-10-19T01:06:59;34.38;;;14.48;;
45356;SDS011;31092;51.924;21.448;2023-10-19T01:09:41;38.20;;;13.48;;
45356;SDS011;31092;51.924;21.448;2023-10-19T01:12:09;26.58;;;12.15;;
45356;SDS011;31092;51.924;21.448;2023-10-19T01:17:33;16.98;;;9.73;;
45356;SDS011;31092;51.924;21.448;2023-10-19T01:20:04;19.23;;;9.50;;
45356;SDS011;31092;51.924;21.448;2023-10-19T01:22:52;14.25;;;9.10;;
45356;SDS011;31092;51.924;21.448;2023-10-19T01:25:20;16.83;;;9.60;;
45356;SDS011;31092;51.924;21.448;2023-10-19T01:27:59;21.17;;;10.85;;
45356;SDS011;31092;51.924;21.448;2023-10-19T01:30:27;28.00;;;12.15;;
45356;SDS011;31092;51.924;21.448;2023-10-19T01:32:52;21.77;;;10.75;;
45356;SDS011;31092;51.924;21.448;2023-10-19T01:35:18;20.40;;;10.77;;
45356;SDS011;31092;51.924;21.448;2023-10-19T01:37:44;28.65;;;10.52;;
45356;SDS011;31092;51.924;21.448;2023-10-19T01:40:09;24.02;;;11.45;;
45356;SDS011;31092;51.924;21.448;2023-10-19T01:42:37;18.33;;;10.63;;
45356;SDS011;31092;51.924;21.448;2023-10-19T01:45:03;21.30;;;11.10;;
45356;SDS011;31092;51.924;21.448;2023-10-19T01:47:30;24.98;;;12.52;;
45356;SDS011;31092;51.924;21.448;2023-10-19T01:49:57;35.65;;;12.43;;
45356;SDS011;31092;51.924;21.448;2023-10-19T01:52:22;31.65;;;13.90;;
45356;SDS011;31092;51.924;21.448;2023-10-19T01:54:49;40.25;;;15.57;;
45356;SDS011;31092;51.924;21.448;2023-10-19T01:57:23;37.50;;;14.48;;
45356;SDS011;31092;51.924;21.448;2023-10-19T01:59:50;36.95;;;16.77;;
45356;SDS011;31092;51.924;21.448;2023-10-19T02:02:16;31.65;;;14.23;;
45356;SDS011;31092;51.924;21.448;2023-10-19T02:04:41;28.23;;;13.80;;
45356;SDS011;31092;51.924;21.448;2023-10-19T02:07:07;19.85;;;11.15;;
45356;SDS011;31092;51.924;21.448;2023-10-19T02:09:38;17.60;;;10.80;;
45356;SDS011;31092;51.924;21.448;2023-10-19T02:12:04;16.40;;;10.25;;
45356;SDS011;31092;51.924;21.448;2023-10-19T02:14:31;19.45;;;10.68;;
45356;SDS011;31092;51.924;21.448;2023-10-19T02:16:59;16.83;;;10.45;;
45356;SDS011;31092;51.924;21.448;2023-10-19T02:19:27;21.98;;;11.45;;
45356;SDS011;31092;51.924;21.448;2023-10-19T02:21:54;21.73;;;11.10;;
45356;SDS011;31092;51.924;21.448;2023-10-19T02:24:23;26.85;;;13.25;;
45356;SDS011;31092;51.924;21.448;2023-10-19T02:26:52;28.35;;;13.50;;
45356;SDS011;31092;51.924;21.448;2023-10-19T02:29:20;22.95;;;12.23;;
45356;SDS011;31092;51.924;21.448;2023-10-19T02:31:51;22.25;;;12.55;;
45356;SDS011;31092;51.924;21.448;2023-10-19T02:34:17;26.25;;;12.40;;
45356;SDS011;31092;51.924;21.448;2023-10-19T02:36:43;21.35;;;12.35;;
45356;SDS011;31092;51.924;21.448;2023-10-19T02:39:11;28.80;;;12.50;;
45356;SDS011;31092;51.924;21.448;2023-10-19T02:41:39;23.83;;;12.85;;
45356;SDS011;31092;51.924;21.448;2023-10-19T02:44:19;27.17;;;13.05;;
45356;SDS011;31092;51.924;21.448;2023-10-19T02:46:53;28.63;;;12.15;;
45356;SDS011;31092;51.924;21.448;2023-10-19T02:49:45;23.00;;;10.65;;
45356;SDS011;31092;51.924;21.448;2023-10-19T02:52:16;19.08;;;10.85;;
45356;SDS011;31092;51.924;21.448;2023-10-19T02:54:41;24.45;;;12.50;;
45356;SDS011;31092;51.924;21.448;2023-10-19T02:57:07;26.58;;;13.38;;
45356;SDS011;31092;51.924;21.448;2023-10-19T02:59:37;28.00;;;13.65;;
45356;SDS011;31092;51.924;21.448;2023-10-19T03:02:04;29.33;;;14.68;;
45356;SDS011;31092;51.924;21.448;2023-10-19T03:04:42;30.98;;;13.43;;
45356;SDS011;31092;51.924;21.448;2023-10-19T03:07:09;33.88;;;14.63;;
45356;SDS011;31092;51.924;21.448;2023-10-19T03:09:35;26.77;;;14.23;;
45356;SDS011;31092;51.924;21.448;2023-10-19T03:12:19;23.80;;;13.05;;
45356;SDS011;31092;51.924;21.448;2023-10-19T03:14:45;31.63;;;12.80;;
45356;SDS011;31092;51.924;21.448;2023-10-19T03:17:14;24.67;;;12.90;;
45356;SDS011;31092;51.924;21.448;2023-10-19T03:19:40;30.88;;;14.52;;
45356;SDS011;31092;51.924;21.448;2023-10-19T03:22:07;32.15;;;14.05;;
45356;SDS011;31092;51.924;21.448;2023-10-19T03:24:34;31.73;;;14.00;;
45356;SDS011;31092;51.924;21.448;2023-10-19T03:27:24;28.70;;;13.85;;
45356;SDS011;31092;51.924;21.448;2023-10-19T03:29:50;31.55;;;14.65;;
45356;SDS011;31092;51.924;21.448;2023-10-19T03:32:26;32.28;;;14.98;;
45356;SDS011;31092;51.924;21.448;2023-10-19T03:34:55;28.17;;;14.27;;
45356;SDS011;31092;51.924;21.448;2023-10-19T03:37:24;24.67;;;13.88;;
45356;SDS011;31092;51.924;21.448;2023-10-19T03:39:55;30.75;;;14.80;;
45356;SDS011;31092;51.924;21.448;2023-10-19T03:42:21;33.33;;;15.43;;
45356;SDS011;31092;51.924;21.448;2023-10-19T03:44:51;33.95;;;16.13;;
45356;SDS011;31092;51.924;21.448;2023-10-19T03:47:20;35.08;;;15.98;;
45356;SDS011;31092;51.924;21.448;2023-10-19T03:49:50;30.52;;;15.32;;
45356;SDS011;31092;51.924;21.448;2023-10-19T03:52:15;35.50;;;16.42;;
45356;SDS011;31092;51.924;21.448;2023-10-19T03:54:41;25.27;;;14.57;;
45356;SDS011;31092;51.924;21.448;2023-10-19T03:57:07;31.73;;;14.90;;
45356;SDS011;31092;51.924;21.448;2023-10-19T03:59:40;32.22;;;15.27;;
45356;SDS011;31092;51.924;21.448;2023-10-19T04:02:09;27.50;;;13.52;;
45356;SDS011;31092;51.924;21.448;2023-10-19T04:04:39;26.73;;;14.00;;
45356;SDS011;31092;51.924;21.448;2023-10-19T04:07:16;27.58;;;13.57;;
45356;SDS011;31092;51.924;21.448;2023-10-19T04:09:52;32.67;;;13.70;;
45356;SDS011;31092;51.924;21.448;2023-10-19T04:12:22;37.63;;;14.60;;
45356;SDS011;31092;51.924;21.448;2023-10-19T04:14:55;28.35;;;13.48;;
45356;SDS011;31092;51.924;21.448;2023-10-19T04:17:34;23.35;;;13.30;;
45356;SDS011;31092;51.924;21.448;2023-10-19T04:20:01;24.60;;;14.18;;
45356;SDS011;31092;51.924;21.448;2023-10-19T04:22:34;32.78;;;15.25;;
45356;SDS011;31092;51.924;21.448;2023-10-19T04:25:00;27.50;;;15.50;;
45356;SDS011;31092;51.924;21.448;2023-10-19T04:27:26;27.63;;;13.55;;
45356;SDS011;31092;51.924;21.448;2023-10-19T04:29:52;31.83;;;15.38;;
45356;SDS011;31092;51.924;21.448;2023-10-19T04:32:17;28.00;;;14.45;;
45356;SDS011;31092;51.924;21.448;2023-10-19T04:34:51;32.25;;;14.60;;
45356;SDS011;31092;51.924;21.448;2023-10-19T04:37:17;26.75;;;14.25;;
45356;SDS011;31092;51.924;21.448;2023-10-19T04:39:44;26.50;;;13.45;;
45356;SDS011;31092;51.924;21.448;2023-10-19T04:42:10;28.38;;;13.70;;
45356;SDS011;31092;51.924;21.448;2023-10-19T04:44:35;30.23;;;14.68;;
45356;SDS011;31092;51.924;21.448;2023-10-19T04:47:01;28.45;;;16.63;;
45356;SDS011;31092;51.924;21.448;2023-10-19T04:49:26;28.65;;;15.27;;
45356;SDS011;31092;51.924;21.448;2023-10-19T04:51:53;24.90;;;13.70;;
45356;SDS011;31092;51.924;21.448;2023-10-19T04:54:18;26.02;;;14.20;;
45356;SDS011;31092;51.924;21.448;2023-10-19T04:56:44;27.33;;;14.95;;
45356;SDS011;31092;51.924;21.448;2023-10-19T04:59:09;23.73;;;14.32;;
45356;SDS011;31092;51.924;21.448;2023-10-19T05:01:35;28.00;;;14.95;;
45356;SDS011;31092;51.924;21.448;2023-10-19T05:04:00;28.77;;;14.93;;
45356;SDS011;31092;51.924;21.448;2023-10-19T05:06:26;24.23;;;13.63;;
45356;SDS011;31092;51.924;21.448;2023-10-19T05:08:51;24.77;;;12.85;;
45356;SDS011;31092;51.924;21.448;2023-10-19T05:11:17;23.98;;;13.20;;
45356;SDS011;31092;51.924;21.448;2023-10-19T05:13:43;24.50;;;13.88;;
45356;SDS011;31092;51.924;21.448;2023-10-19T05:16:08;30.00;;;13.82;;
45356;SDS011;31092;51.924;21.448;2023-10-19T05:18:34;28.25;;;13.43;;
45356;SDS011;31092;51.924;21.448;2023-10-19T05:20:59;21.73;;;13.35;;
45356;SDS011;31092;51.924;21.448;2023-10-19T05:23:27;23.73;;;12.48;;
45356;SDS011;31092;51.924;21.448;2023-10-19T05:26:05;28.17;;;15.35;;
45356;SDS011;31092;51.924;21.448;2023-10-19T05:28:32;28.77;;;15.02;;
45356;SDS011;31092;51.924;21.448;2023-10-19T05:30:57;25.98;;;14.38;;
45356;SDS011;31092;51.924;21.448;2023-10-19T05:33:24;29.63;;;15.45;;
45356;SDS011;31092;51.924;21.448;2023-10-19T05:35:51;28.80;;;14.38;;
45356;SDS011;31092;51.924;21.448;2023-10-19T05:38:17;34.15;;;16.73;;
45356;SDS011;31092;51.924;21.448;2023-10-19T05:40:45;23.05;;;14.15;;
45356;SDS011;31092;51.924;21.448;2023-10-19T05:43:10;29.33;;;15.48;;
45356;SDS011;31092;51.924;21.448;2023-10-19T05:45:36;25.63;;;15.10;;
45356;SDS011;31092;51.924;21.448;2023-10-19T05:48:05;27.15;;;15.30;;
45356;SDS011;31092;51.924;21.448;2023-10-19T05:50:34;25.33;;;13.82;;
45356;SDS011;31092;51.924;21.448;2023-10-19T05:53:00;28.45;;;15.07;;
45356;SDS011;31092;51.924;21.448;2023-10-19T05:55:26;25.48;;;14.77;;
45356;SDS011;31092;51.924;21.448;2023-10-19T05:57:51;31.50;;;16.48;;
45356;SDS011;31092;51.924;21.448;2023-10-19T06:00:17;29.90;;;17.05;;
45356;SDS011;31092;51.924;21.448;2023-10-19T06:02:46;31.30;;;16.73;;
45356;SDS011;31092;51.924;21.448;2023-10-19T06:05:14;29.65;;;16.70;;
45356;SDS011;31092;51.924;21.448;2023-10-19T06:07:44;36.85;;;16.98;;
45356;SDS011;31092;51.924;21.448;2023-10-19T06:10:12;30.95;;;16.98;;
45356;SDS011;31092;51.924;21.448;2023-10-19T06:12:41;38.35;;;17.75;;
45356;SDS011;31092;51.924;21.448;2023-10-19T06:15:07;37.72;;;16.33;;
45356;SDS011;31092;51.924;21.448;2023-10-19T06:17:33;34.20;;;17.88;;
45356;SDS011;31092;51.924;21.448;2023-10-19T06:19:58;28.88;;;16.95;;
45356;SDS011;31092;51.924;21.448;2023-10-19T06:22:24;31.83;;;16.52;;
45356;SDS011;31092;51.924;21.448;2023-10-19T06:24:49;34.63;;;18.27;;
45356;SDS011;31092;51.924;21.448;2023-10-19T06:27:15;31.60;;;16.42;;
45356;SDS011;31092;51.924;21.448;2023-10-19T06:29:40;28.92;;;15.75;;
45356;SDS011;31092;51.924;21.448;2023-10-19T06:32:06;31.13;;;16.50;;
45356;SDS011;31092;51.924;21.448;2023-10-19T06:34:31;32.80;;;17.65;;
45356;SDS011;31092;51.924;21.448;2023-10-19T06:36:57;39.85;;;18.73;;
45356;SDS011;31092;51.924;21.448;2023-10-19T06:39:24;36.17;;;18.13;;
45356;SDS011;31092;51.924;21.448;2023-10-19T06:41:49;30.25;;;17.70;;
45356;SDS011;31092;51.924;21.448;2023-10-19T06:47:37;32.28;;;17.60;;
45356;SDS011;31092;51.924;21.448;2023-10-19T06:50:04;29.58;;;16.95;;
45356;SDS011;31092;51.924;21.448;2023-10-19T06:52:33;28.38;;;18.00;;
45356;SDS011;31092;51.924;21.448;2023-10-19T06:55:01;30.23;;;17.85;;
45356;SDS011;31092;51.924;21.448;2023-10-19T06:57:28;29.40;;;16.95;;
45356;SDS011;31092;51.924;21.448;2023-10-19T06:59:54;28.73;;;17.38;;
45356;SDS011;31092;51.924;21.448;2023-10-19T07:02:19;25.85;;;17.60;;
45356;SDS011;31092;51.924;21.448;2023-10-19T07:04:45;25.65;;;16.63;;
45356;SDS011;31092;51.924;21.448;2023-10-19T07:07:12;33.30;;;19.52;;
45356;SDS011;31092;51.924;21.448;2023-10-19T07:09:39;27.85;;;18.05;;
45356;SDS011;31092;51.924;21.448;2023-10-19T07:12:04;29.70;;;17.05;;
45356;SDS011;31092;51.924;21.448;2023-10-19T07:14:34;29.98;;;18.20;;
45356;SDS011;31092;51.924;21.448;2023-10-19T07:17:00;30.52;;;19.13;;
45356;SDS011;31092;51.924;21.448;2023-10-19T07:19:25;31.17;;;19.33;;
45356;SDS011;31092;51.924;21.448;2023-10-19T07:21:51;26.25;;;17.95;;
45356;SDS011;31092;51.924;21.448;2023-10-19T07:24:31;29.80;;;18.45;;
45356;SDS011;31092;51.924;21.448;2023-10-19T07:27:08;29.45;;;17.63;;
45356;SDS011;31092;51.924;21.448;2023-10-19T07:29:45;25.08;;;17.20;;
45356;SDS011;31092;51.924;21.448;2023-10-19T07:32:10;28.92;;;17.92;;
45356;SDS011;31092;51.924;21.448;2023-10-19T07:34:38;23.77;;;16.75;;
45356;SDS011;31092;51.924;21.448;2023-10-19T07:37:05;31.70;;;17.48;;
45356;SDS011;31092;51.924;21.448;2023-10-19T07:39:32;26.85;;;15.43;;
45356;SDS011;31092;51.924;21.448;2023-10-19T07:41:59;26.48;;;16.20;;
45356;SDS011;31092;51.924;21.448;2023-10-19T07:44:24;24.70;;;17.65;;
45356;SDS011;31092;51.924;21.448;2023-10-19T07:46:51;27.92;;;16.20;;
45356;SDS011;31092;51.924;21.448;2023-10-19T07:49:17;27.42;;;17.17;;
45356;SDS011;31092;51.924;21.448;2023-10-19T07:51:48;19.40;;;15.93;;
45356;SDS011;31092;51.924;21.448;2023-10-19T07:54:14;24.50;;;16.92;;
45356;SDS011;31092;51.924;21.448;2023-10-19T07:56:41;22.45;;;17.35;;
45356;SDS011;31092;51.924;21.448;2023-10-19T07:59:06;24.38;;;17.27;;
45356;SDS011;31092;51.924;21.448;2023-10-19T08:01:32;21.75;;;16.13;;
45356;SDS011;31092;51.924;21.448;2023-10-19T08:03:58;24.55;;;17.40;;
45356;SDS011;31092;51.924;21.448;2023-10-19T08:06:24;25.13;;;16.42;;
45356;SDS011;31092;51.924;21.448;2023-10-19T08:08:49;21.52;;;14.93;;
45356;SDS011;31092;51.924;21.448;2023-10-19T08:11:30;18.48;;;14.23;;
45356;SDS011;31092;51.924;21.448;2023-10-19T08:13:59;21.40;;;14.45;;
45356;SDS011;31092;51.924;21.448;2023-10-19T08:16:28;22.73;;;14.45;;
45356;SDS011;31092;51.924;21.448;2023-10-19T08:18:53;21.30;;;14.93;;
45356;SDS011;31092;51.924;21.448;2023-10-19T08:21:19;23.63;;;15.15;;
45356;SDS011;31092;51.924;21.448;2023-10-19T08:23:46;22.63;;;14.90;;
45356;SDS011;31092;51.924;21.448;2023-10-19T08:26:12;28.05;;;15.68;;
45356;SDS011;31092;51.924;21.448;2023-10-19T08:28:47;24.40;;;14.63;;
45356;SDS011;31092;51.924;21.448;2023-10-19T08:31:26;23.92;;;14.93;;
45356;SDS011;31092;51.924;21.448;2023-10-19T08:33:52;18.38;;;14.80;;
45356;SDS011;31092;51.924;21.448;2023-10-19T08:36:20;19.00;;;14.55;;
45356;SDS011;31092;51.924;21.448;2023-10-19T08:39:24;17.20;;;13.57;;
45356;SDS011;31092;51.924;21.448;2023-10-19T08:42:04;16.45;;;13.50;;
45356;SDS011;31092;51.924;21.448;2023-10-19T08:44:35;18.60;;;13.40;;
45356;SDS011;31092;51.924;21.448;2023-10-19T08:47:04;16.13;;;13.45;;
45356;SDS011;31092;51.924;21.448;2023-10-19T08:49:30;15.18;;;13.25;;
45356;SDS011;31092;51.924;21.448;2023-10-19T08:51:56;16.13;;;13.63;;
45356;SDS011;31092;51.924;21.448;2023-10-19T08:54:48;16.60;;;12.68;;
45356;SDS011;31092;51.924;21.448;2023-10-19T08:57:14;15.80;;;13.25;;
45356;SDS011;31092;51.924;21.448;2023-10-19T09:02:28;18.08;;;13.80;;
45356;SDS011;31092;51.924;21.448;2023-10-19T09:05:32;17.05;;;12.57;;
45356;SDS011;31092;51.924;21.448;2023-10-19T09:07:58;20.45;;;13.68;;
45356;SDS011;31092;51.924;21.448;2023-10-19T09:10:28;17.02;;;13.55;;
45356;SDS011;31092;51.924;21.448;2023-10-19T09:13:04;15.77;;;13.05;;
45356;SDS011;31092;51.924;21.448;2023-10-19T09:15:34;15.30;;;13.57;;
45356;SDS011;31092;51.924;21.448;2023-10-19T09:18:20;14.60;;;12.95;;
45356;SDS011;31092;51.924;21.448;2023-10-19T09:20:48;14.35;;;12.60;;
45356;SDS011;31092;51.924;21.448;2023-10-19T09:23:21;17.20;;;13.82;;
45356;SDS011;31092;51.924;21.448;2023-10-19T09:25:57;19.40;;;14.95;;
45356;SDS011;31092;51.924;21.448;2023-10-19T09:28:27;17.15;;;14.38;;
45356;SDS011;31092;51.924;21.448;2023-10-19T09:30:52;19.17;;;15.30;;
45356;SDS011;31092;51.924;21.448;2023-10-19T09:33:18;16.02;;;14.32;;
45356;SDS011;31092;51.924;21.448;2023-10-19T09:35:47;16.08;;;14.13;;
45356;SDS011;31092;51.924;21.448;2023-10-19T09:41:12;14.52;;;13.07;;
45356;SDS011;31092;51.924;21.448;2023-10-19T09:43:48;17.70;;;14.63;;
45356;SDS011;31092;51.924;21.448;2023-10-19T09:46:22;15.73;;;14.23;;
45356;SDS011;31092;51.924;21.448;2023-10-19T09:48:51;14.25;;;12.95;;
45356;SDS011;31092;51.924;21.448;2023-10-19T09:57:58;17.52;;;12.93;;
45356;SDS011;31092;51.924;21.448;2023-10-19T10:06:31;17.27;;;14.60;;
45356;SDS011;31092;51.924;21.448;2023-10-19T10:09:17;14.45;;;12.98;;
45356;SDS011;31092;51.924;21.448;2023-10-19T10:11:48;20.90;;;13.98;;
45356;SDS011;31092;51.924;21.448;2023-10-19T10:14:32;15.90;;;14.18;;
45356;SDS011;31092;51.924;21.448;2023-10-19T10:17:01;18.80;;;14.35;;
45356;SDS011;31092;51.924;21.448;2023-10-19T10:22:38;15.20;;;13.35;;
45356;SDS011;31092;51.924;21.448;2023-10-19T10:25:03;18.40;;;14.82;;
45356;SDS011;31092;51.924;21.448;2023-10-19T10:27:30;15.65;;;13.27;;
45356;SDS011;31092;51.924;21.448;2023-10-19T10:29:56;16.95;;;14.05;;
45356;SDS011;31092;51.924;21.448;2023-10-19T10:39:15;16.67;;;13.93;;
45356;SDS011;31092;51.924;21.448;2023-10-19T10:41:44;18.17;;;13.60;;
45356;SDS011;31092;51.924;21.448;2023-10-19T10:44:11;14.13;;;12.63;;
45356;SDS011;31092;51.924;21.448;2023-10-19T10:46:37;14.27;;;12.98;;
45356;SDS011;31092;51.924;21.448;2023-10-19T10:55:37;16.47;;;12.60;;
45356;SDS011;31092;51.924;21.448;2023-10-19T10:58:04;15.50;;;12.95;;
45356;SDS011;31092;51.924;21.448;2023-10-19T11:00:30;15.10;;;13.43;;
45356;SDS011;31092;51.924;21.448;2023-10-19T11:10:07;16.92;;;13.68;;
45356;SDS011;31092;51.924;21.448;2023-10-19T11:12:35;15.48;;;13.10;;
45356;SDS011;31092;51.924;21.448;2023-10-19T11:15:13;14.57;;;13.10;;
45356;SDS011;31092;51.924;21.448;2023-10-19T11:18:09;16.80;;;13.90;;
45356;SDS011;31092;51.924;21.448;2023-10-19T11:20:36;15.50;;;13.85;;
45356;SDS011;31092;51.924;21.448;2023-10-19T11:23:02;16.88;;;14.15;;
45356;SDS011;31092;51.924;21.448;2023-10-19T11:26:14;17.55;;;14.88;;
45356;SDS011;31092;51.924;21.448;2023-10-19T11:28:39;16.13;;;13.75;;
45356;SDS011;31092;51.924;21.448;2023-10-19T11:31:16;14.90;;;13.40;;
45356;SDS011;31092;51.924;21.448;2023-10-19T11:33:50;17.63;;;13.45;;
45356;SDS011;31092;51.924;21.448;2023-10-19T11:36:16;16.33;;;14.65;;
45356;SDS011;31092;51.924;21.448;2023-10-19T11:38:44;16.75;;;14.80;;
45356;SDS011;31092;51.924;21.448;2023-10-19T11:41:11;17.00;;;15.02;;
45356;SDS011;31092;51.924;21.448;2023-10-19T11:43:39;15.15;;;13.75;;
45356;SDS011;31092;51.924;21.448;2023-10-19T11:46:07;16.02;;;14.25;;
45356;SDS011;31092;51.924;21.448;2023-10-19T11:48:36;15.88;;;14.40;;
45356;SDS011;31092;51.924;21.448;2023-10-19T11:51:02;18.48;;;14.20;;
45356;SDS011;31092;51.924;21.448;2023-10-19T11:53:31;20.00;;;14.82;;
45356;SDS011;31092;51.924;21.448;2023-10-19T11:56:17;15.70;;;13.13;;
45356;SDS011;31092;51.924;21.448;2023-10-19T11:59:03;17.35;;;14.75;;
45356;SDS011;31092;51.924;21.448;2023-10-19T12:04:54;15.23;;;13.77;;
45356;SDS011;31092;51.924;21.448;2023-10-19T12:07:22;20.20;;;14.32;;
45356;SDS011;31092;51.924;21.448;2023-10-19T12:12:38;15.15;;;12.77;;
45356;SDS011;31092;51.924;21.448;2023-10-19T12:15:07;14.38;;;12.13;;
45356;SDS011;31092;51.924;21.448;2023-10-19T12:18:30;14.30;;;12.18;;
45356;SDS011;31092;51.924;21.448;2023-10-19T12:20:59;17.05;;;12.63;;
45356;SDS011;31092;51.924;21.448;2023-10-19T12:23:25;15.65;;;13.35;;
45356;SDS011;31092;51.924;21.448;2023-10-19T12:25:52;16.90;;;13.13;;
45356;SDS011;31092;51.924;21.448;2023-10-19T12:28:18;16.85;;;13.05;;
45356;SDS011;31092;51.924;21.448;2023-10-19T12:30:44;14.73;;;13.23;;
45356;SDS011;31092;51.924;21.448;2023-10-19T12:33:09;14.13;;;12.85;;
45356;SDS011;31092;51.924;21.448;2023-10-19T12:35:41;14.32;;;12.10;;
45356;SDS011;31092;51.924;21.448;2023-10-19T12:38:11;13.63;;;12.40;;
45356;SDS011;31092;51.924;21.448;2023-10-19T12:40:44;19.08;;;12.73;;
45356;SDS011;31092;51.924;21.448;2023-10-19T12:43:11;16.00;;;13.27;;
45356;SDS011;31092;51.924;21.448;2023-10-19T12:45:37;15.52;;;12.35;;
45356;SDS011;31092;51.924;21.448;2023-10-19T12:48:09;16.83;;;13.27;;
45356;SDS011;31092;51.924;21.448;2023-10-19T12:50:37;15.27;;;11.77;;
45356;SDS011;31092;51.924;21.448;2023-10-19T12:53:02;14.55;;;13.05;;
45356;SDS011;31092;51.924;21.448;2023-10-19T12:55:28;15.48;;;13.27;;
45356;SDS011;31092;51.924;21.448;2023-10-19T12:57:58;14.30;;;13.02;;
45356;SDS011;31092;51.924;21.448;2023-10-19T13:01:14;13.45;;;12.23;;
45356;SDS011;31092;51.924;21.448;2023-10-19T13:03:48;13.98;;;12.20;;
45356;SDS011;31092;51.924;21.448;2023-10-19T13:06:17;17.65;;;13.23;;
45356;SDS011;31092;51.924;21.448;2023-10-19T13:08:54;16.05;;;12.50;;
45356;SDS011;31092;51.924;21.448;2023-10-19T13:11:48;17.27;;;13.05;;
45356;SDS011;31092;51.924;21.448;2023-10-19T13:14:25;13.45;;;12.18;;
45356;SDS011;31092;51.924;21.448;2023-10-19T13:16:52;16.70;;;13.80;;
45356;SDS011;31092;51.924;21.448;2023-10-19T13:20:12;12.63;;;11.43;;
45356;SDS011;31092;51.924;21.448;2023-10-19T13:26:28;16.95;;;11.05;;
45356;SDS011;31092;51.924;21.448;2023-10-19T13:28:53;15.57;;;12.60;;
45356;SDS011;31092;51.924;21.448;2023-10-19T13:31:20;15.70;;;12.70;;
45356;SDS011;31092;51.924;21.448;2023-10-19T13:33:47;15.55;;;13.27;;
45356;SDS011;31092;51.924;21.448;2023-10-19T13:36:22;18.88;;;13.20;;
45356;SDS011;31092;51.924;21.448;2023-10-19T13:39:10;14.85;;;12.32;;
45356;SDS011;31092;51.924;21.448;2023-10-19T13:41:41;15.90;;;12.50;;
45356;SDS011;31092;51.924;21.448;2023-10-19T13:44:08;15.15;;;13.65;;
45356;SDS011;31092;51.924;21.448;2023-10-19T13:46:34;19.23;;;12.73;;
45356;SDS011;31092;51.924;21.448;2023-10-19T13:49:00;15.95;;;12.82;;
45356;SDS011;31092;51.924;21.448;2023-10-19T13:51:30;18.15;;;13.05;;
45356;SDS011;31092;51.924;21.448;2023-10-19T13:54:39;14.20;;;12.15;;
45356;SDS011;31092;51.924;21.448;2023-10-19T13:57:35;13.85;;;12.48;;
45356;SDS011;31092;51.924;21.448;2023-10-19T14:00:00;15.77;;;13.80;;
45356;SDS011;31092;51.924;21.448;2023-10-19T14:02:26;16.20;;;13.38;;
45356;SDS011;31092;51.924;21.448;2023-10-19T14:04:51;16.20;;;13.02;;
45356;SDS011;31092;51.924;21.448;2023-10-19T14:07:18;14.77;;;12.93;;
45356;SDS011;31092;51.924;21.448;2023-10-19T14:09:45;19.23;;;13.02;;
45356;SDS011;31092;51.924;21.448;2023-10-19T14:12:11;16.80;;;13.13;;
45356;SDS011;31092;51.924;21.448;2023-10-19T14:14:37;15.77;;;12.80;;
45356;SDS011;31092;51.924;21.448;2023-10-19T14:17:02;16.40;;;12.48;;
45356;SDS011;31092;51.924;21.448;2023-10-19T14:19:28;15.57;;;12.55;;
45356;SDS011;31092;51.924;21.448;2023-10-19T14:21:54;18.40;;;13.45;;
45356;SDS011;31092;51.924;21.448;2023-10-19T14:24:19;19.58;;;13.77;;
45356;SDS011;31092;51.924;21.448;2023-10-19T14:26:48;16.17;;;12.77;;
45356;SDS011;31092;51.924;21.448;2023-10-19T14:29:13;20.02;;;12.77;;
45356;SDS011;31092;51.924;21.448;2023-10-19T14:31:39;14.07;;;12.73;;
45356;SDS011;31092;51.924;21.448;2023-10-19T14:34:05;14.55;;;12.82;;
45356;SDS011;31092;51.924;21.448;2023-10-19T14:40:26;14.20;;;11.52;;
45356;SDS011;31092;51.924;21.448;2023-10-19T14:42:56;15.63;;;12.07;;
45356;SDS011;31092;51.924;21.448;2023-10-19T14:45:31;16.75;;;12.18;;
45356;SDS011;31092;51.924;21.448;2023-10-19T14:47:57;18.05;;;14.25;;
45356;SDS011;31092;51.924;21.448;2023-10-19T14:50:56;13.52;;;12.07;;
45356;SDS011;31092;51.924;21.448;2023-10-19T14:53:36;16.85;;;13.50;;
45356;SDS011;31092;51.924;21.448;2023-10-19T14:56:05;15.82;;;13.05;;
45356;SDS011;31092;51.924;21.448;2023-10-19T14:58:37;18.67;;;12.45;;
45356;SDS011;31092;51.924;21.448;2023-10-19T15:01:02;14.40;;;12.93;;
45356;SDS011;31092;51.924;21.448;2023-10-19T15:03:31;15.75;;;13.60;;
45356;SDS011;31092;51.924;21.448;2023-10-19T15:05:57;14.85;;;13.25;;
45356;SDS011;31092;51.924;21.448;2023-10-19T15:08:24;18.35;;;13.18;;
45356;SDS011;31092;51.924;21.448;2023-10-19T15:10:59;14.90;;;12.90;;
45356;SDS011;31092;51.924;21.448;2023-10-19T15:13:27;15.13;;;11.93;;
45356;SDS011;31092;51.924;21.448;2023-10-19T15:15:53;18.13;;;12.60;;
45356;SDS011;31092;51.924;21.448;2023-10-19T15:18:26;15.57;;;11.88;;
45356;SDS011;31092;51.924;21.448;2023-10-19T15:20:52;15.20;;;12.73;;
45356;SDS011;31092;51.924;21.448;2023-10-19T15:23:18;18.42;;;14.25;;
45356;SDS011;31092;51.924;21.448;2023-10-19T15:26:02;16.13;;;12.35;;
45356;SDS011;31092;51.924;21.448;2023-10-19T15:43:30;20.05;;;13.73;;
45356;SDS011;31092;51.924;21.448;2023-10-19T15:45:59;22.27;;;14.93;;